sensor_id;sensor_type;location;lat;lon;timestamp;P1;durP1;ratioP1;P2;durP2;ratioP2
7817;SDS011;3954;52.624;9.212;2022-08-19T00:02:10;10.07;;;4.67;;
7817;SDS011;3954;52.624;9.212;2022-08-19T00:04:38;6.10;;;4.40;;
7817;SDS011;3954;52.624;9.212;2022-08-19T00:07:05;5.57;;;4.50;;
7817;SDS011;3954;52.624;9.212;2022-08-19T00:09:31;6.57;;;4.40;;
7817;SDS011;3954;52.624;9.212;2022-08-19T00:11:57;6.50;;;4.60;;
7817;SDS011;3954;52.624;9.212;2022-08-19T00:14:24;6.23;;;4.47;;
7817;SDS011;3954;52.624;9.212;2022-08-19T00:16:51;5.97;;;4.17;;
7817;SDS011;3954;52.624;9.212;2022-08-19T00:19:19;5.70;;;4.63;;
7817;SDS011;3954;52.624;9.212;2022-08-19T00:21:47;6.57;;;4.10;;
7817;SDS011;3954;52.624;9.212;2022-08-19T00:24:13;5.80;;;4.10;;
7817;SDS011;3954;52.624;9.212;2022-08-19T00:26:40;7.07;;;4.40;;
7817;SDS011;3954;52.624;9.212;2022-08-19T00:29:07;6.30;;;4.27;;
7817;SDS011;3954;52.624;9.212;2022-08-19T00:31:33;6.10;;;4.57;;
7817;SDS011;3954;52.624;9.212;2022-08-19T00:34:00;8.17;;;4.77;;
7817;SDS011;3954;52.624;9.212;2022-08-19T00:36:26;6.23;;;4.10;;
7817;SDS011;3954;52.624;9.212;2022-08-19T00:38:55;7.47;;;4.37;;
7817;SDS011;3954;52.624;9.212;2022-08-19T00:41:21;5.63;;;4.40;;
7817;SDS011;3954;52.624;9.212;2022-08-19T00:43:56;5.10;;;4.30;;
7817;SDS011;3954;52.624;9.212;2022-08-19T00:46:22;6.27;;;4.40;;
7817;SDS011;3954;52.624;9.212;2022-08-19T00:48:48;5.37;;;3.97;;
7817;SDS011;3954;52.624;9.212;2022-08-19T00:51:14;5.23;;;4.03;;
7817;SDS011;3954;52.624;9.212;2022-08-19T00:53:40;5.03;;;4.43;;
7817;SDS011;3954;52.624;9.212;2022-08-19T00:56:07;5.93;;;4.03;;
7817;SDS011;3954;52.624;9.212;2022-08-19T00:58:34;5.03;;;4.50;;
7817;SDS011;3954;52.624;9.212;2022-08-19T01:01:01;5.07;;;4.33;;
7817;SDS011;3954;52.624;9.212;2022-08-19T01:03:27;7.17;;;4.03;;
7817;SDS011;3954;52.624;9.212;2022-08-19T01:05:54;5.67;;;4.27;;
7817;SDS011;3954;52.624;9.212;2022-08-19T01:08:20;6.10;;;4.50;;
7817;SDS011;3954;52.624;9.212;2022-08-19T01:10:47;6.03;;;4.97;;
7817;SDS011;3954;52.624;9.212;2022-08-19T01:13:16;9.77;;;4.60;;
7817;SDS011;3954;52.624;9.212;2022-08-19T01:15:43;6.60;;;4.93;;
7817;SDS011;3954;52.624;9.212;2022-08-19T01:18:12;8.10;;;4.63;;
7817;SDS011;3954;52.624;9.212;2022-08-19T01:20:39;7.40;;;5.93;;
7817;SDS011;3954;52.624;9.212;2022-08-19T01:23:07;6.87;;;6.17;;
7817;SDS011;3954;52.624;9.212;2022-08-19T01:25:35;9.37;;;5.93;;
7817;SDS011;3954;52.624;9.212;2022-08-19T01:28:02;5.93;;;5.30;;
7817;SDS011;3954;52.624;9.212;2022-08-19T01:30:29;8.07;;;6.37;;
7817;SDS011;3954;52.624;9.212;2022-08-19T01:32:56;7.37;;;5.90;;
7817;SDS011;3954;52.624;9.212;2022-08-19T01:35:23;7.20;;;6.50;;
7817;SDS011;3954;52.624;9.212;2022-08-19T01:37:50;7.60;;;6.70;;
7817;SDS011;3954;52.624;9.212;2022-08-19T01:40:19;7.97;;;7.10;;
7817;SDS011;3954;52.624;9.212;2022-08-19T01:42:46;7.80;;;7.00;;
7817;SDS011;3954;52.624;9.212;2022-08-19T01:45:12;8.47;;;7.40;;
7817;SDS011;3954;52.624;9.212;2022-08-19T01:47:38;10.07;;;7.70;;
7817;SDS011;3954;52.624;9.212;2022-08-19T01:50:05;10.00;;;8.80;;
7817;SDS011;3954;52.624;9.212;2022-08-19T01:52:32;11.60;;;9.10;;
7817;SDS011;3954;52.624;9.212;2022-08-19T01:55:00;8.53;;;7.67;;
7817;SDS011;3954;52.624;9.212;2022-08-19T01:57:27;8.43;;;7.37;;
7817;SDS011;3954;52.624;9.212;2022-08-19T01:59:53;10.00;;;8.53;;
7817;SDS011;3954;52.624;9.212;2022-08-19T02:02:19;11.03;;;9.50;;
7817;SDS011;3954;52.624;9.212;2022-08-19T02:04:45;9.40;;;8.40;;
7817;SDS011;3954;52.624;9.212;2022-08-19T02:07:11;11.53;;;9.53;;
7817;SDS011;3954;52.624;9.212;2022-08-19T02:12:42;9.73;;;7.03;;
7817;SDS011;3954;52.624;9.212;2022-08-19T02:15:08;9.77;;;8.60;;
7817;SDS011;3954;52.624;9.212;2022-08-19T02:17:34;11.20;;;8.70;;
7817;SDS011;3954;52.624;9.212;2022-08-19T02:20:00;11.83;;;9.13;;
7817;SDS011;3954;52.624;9.212;2022-08-19T02:22:27;9.30;;;8.27;;
7817;SDS011;3954;52.624;9.212;2022-08-19T02:24:53;10.10;;;9.03;;
7817;SDS011;3954;52.624;9.212;2022-08-19T02:27:19;10.07;;;8.60;;
7817;SDS011;3954;52.624;9.212;2022-08-19T02:29:46;8.43;;;7.60;;
7817;SDS011;3954;52.624;9.212;2022-08-19T02:32:13;10.17;;;8.50;;
7817;SDS011;3954;52.624;9.212;2022-08-19T02:34:40;9.97;;;8.20;;
7817;SDS011;3954;52.624;9.212;2022-08-19T02:37:06;9.13;;;8.23;;
7817;SDS011;3954;52.624;9.212;2022-08-19T02:39:52;12.20;;;8.50;;
7817;SDS011;3954;52.624;9.212;2022-08-19T02:42:18;10.30;;;8.30;;
7817;SDS011;3954;52.624;9.212;2022-08-19T02:44:44;9.27;;;8.13;;
7817;SDS011;3954;52.624;9.212;2022-08-19T02:47:12;8.30;;;7.47;;
7817;SDS011;3954;52.624;9.212;2022-08-19T02:49:39;9.93;;;8.23;;
7817;SDS011;3954;52.624;9.212;2022-08-19T02:52:05;9.47;;;8.07;;
7817;SDS011;3954;52.624;9.212;2022-08-19T02:54:31;10.57;;;8.27;;
7817;SDS011;3954;52.624;9.212;2022-08-19T02:56:57;8.13;;;7.30;;
7817;SDS011;3954;52.624;9.212;2022-08-19T02:59:23;8.30;;;7.60;;
7817;SDS011;3954;52.624;9.212;2022-08-19T03:01:50;9.40;;;8.50;;
7817;SDS011;3954;52.624;9.212;2022-08-19T03:04:18;8.90;;;8.10;;
7817;SDS011;3954;52.624;9.212;2022-08-19T03:06:46;9.37;;;8.23;;
7817;SDS011;3954;52.624;9.212;2022-08-19T03:09:12;9.80;;;8.80;;
7817;SDS011;3954;52.624;9.212;2022-08-19T03:11:39;9.90;;;9.00;;
7817;SDS011;3954;52.624;9.212;2022-08-19T03:14:06;9.50;;;8.70;;
7817;SDS011;3954;52.624;9.212;2022-08-19T03:16:33;8.77;;;7.17;;
7817;SDS011;3954;52.624;9.212;2022-08-19T03:19:00;8.90;;;7.47;;
7817;SDS011;3954;52.624;9.212;2022-08-19T03:21:28;10.23;;;8.00;;
7817;SDS011;3954;52.624;9.212;2022-08-19T03:23:55;9.50;;;8.50;;
7817;SDS011;3954;52.624;9.212;2022-08-19T03:26:21;11.03;;;8.00;;
7817;SDS011;3954;52.624;9.212;2022-08-19T03:28:47;10.13;;;8.50;;
7817;SDS011;3954;52.624;9.212;2022-08-19T03:31:15;8.43;;;7.40;;
7817;SDS011;3954;52.624;9.212;2022-08-19T03:33:41;10.80;;;8.37;;
7817;SDS011;3954;52.624;9.212;2022-08-19T03:36:11;8.77;;;7.90;;
7817;SDS011;3954;52.624;9.212;2022-08-19T03:38:39;9.77;;;8.50;;
7817;SDS011;3954;52.624;9.212;2022-08-19T03:41:06;8.53;;;7.70;;
7817;SDS011;3954;52.624;9.212;2022-08-19T03:43:33;9.43;;;8.43;;
7817;SDS011;3954;52.624;9.212;2022-08-19T03:46:00;11.60;;;8.70;;
7817;SDS011;3954;52.624;9.212;2022-08-19T03:48:27;9.27;;;8.37;;
7817;SDS011;3954;52.624;9.212;2022-08-19T03:50:55;10.47;;;9.17;;
7817;SDS011;3954;52.624;9.212;2022-08-19T03:53:21;10.20;;;8.63;;
7817;SDS011;3954;52.624;9.212;2022-08-19T03:55:48;10.47;;;9.37;;
7817;SDS011;3954;52.624;9.212;2022-08-19T03:58:14;10.80;;;9.70;;
7817;SDS011;3954;52.624;9.212;2022-08-19T04:00:41;11.90;;;9.70;;
7817;SDS011;3954;52.624;9.212;2022-08-19T04:03:07;10.87;;;9.60;;
7817;SDS011;3954;52.624;9.212;2022-08-19T04:05:33;10.40;;;9.30;;
7817;SDS011;3954;52.624;9.212;2022-08-19T04:07:59;10.13;;;9.03;;
7817;SDS011;3954;52.624;9.212;2022-08-19T04:10:26;13.30;;;10.60;;
7817;SDS011;3954;52.624;9.212;2022-08-19T04:12:54;14.37;;;9.33;;
7817;SDS011;3954;52.624;9.212;2022-08-19T04:15:20;9.83;;;8.83;;
7817;SDS011;3954;52.624;9.212;2022-08-19T04:17:46;10.60;;;9.17;;
7817;SDS011;3954;52.624;9.212;2022-08-19T04:20:12;10.37;;;9.27;;
7817;SDS011;3954;52.624;9.212;2022-08-19T04:22:38;12.47;;;10.47;;
7817;SDS011;3954;52.624;9.212;2022-08-19T04:25:04;10.60;;;9.57;;
7817;SDS011;3954;52.624;9.212;2022-08-19T04:27:30;11.23;;;10.03;;
7817;SDS011;3954;52.624;9.212;2022-08-19T04:29:59;11.07;;;8.87;;
7817;SDS011;3954;52.624;9.212;2022-08-19T04:32:25;15.20;;;10.30;;
7817;SDS011;3954;52.624;9.212;2022-08-19T04:34:51;12.23;;;10.97;;
7817;SDS011;3954;52.624;9.212;2022-08-19T04:37:18;12.80;;;10.43;;
7817;SDS011;3954;52.624;9.212;2022-08-19T04:39:44;13.23;;;11.87;;
7817;SDS011;3954;52.624;9.212;2022-08-19T04:42:28;15.00;;;11.20;;
7817;SDS011;3954;52.624;9.212;2022-08-19T04:45:05;12.63;;;10.83;;
7817;SDS011;3954;52.624;9.212;2022-08-19T04:47:32;16.53;;;11.80;;
7817;SDS011;3954;52.624;9.212;2022-08-19T04:49:58;15.83;;;12.80;;
7817;SDS011;3954;52.624;9.212;2022-08-19T04:52:24;12.60;;;10.33;;
7817;SDS011;3954;52.624;9.212;2022-08-19T04:54:50;13.50;;;12.10;;
7817;SDS011;3954;52.624;9.212;2022-08-19T04:57:16;13.50;;;11.70;;
7817;SDS011;3954;52.624;9.212;2022-08-19T04:59:42;12.17;;;10.90;;
7817;SDS011;3954;52.624;9.212;2022-08-19T05:02:09;14.27;;;12.23;;
7817;SDS011;3954;52.624;9.212;2022-08-19T05:04:35;13.57;;;12.17;;
7817;SDS011;3954;52.624;9.212;2022-08-19T05:07:04;14.17;;;12.20;;
7817;SDS011;3954;52.624;9.212;2022-08-19T05:09:30;13.43;;;12.03;;
7817;SDS011;3954;52.624;9.212;2022-08-19T05:11:56;17.10;;;11.70;;
7817;SDS011;3954;52.624;9.212;2022-08-19T05:14:22;12.93;;;11.63;;
7817;SDS011;3954;52.624;9.212;2022-08-19T05:16:48;12.00;;;10.60;;
7817;SDS011;3954;52.624;9.212;2022-08-19T05:19:15;16.20;;;12.43;;
7817;SDS011;3954;52.624;9.212;2022-08-19T05:22:00;11.80;;;10.37;;
7817;SDS011;3954;52.624;9.212;2022-08-19T05:24:44;13.60;;;11.80;;
7817;SDS011;3954;52.624;9.212;2022-08-19T05:27:11;13.63;;;10.80;;
7817;SDS011;3954;52.624;9.212;2022-08-19T05:29:37;14.97;;;11.73;;
7817;SDS011;3954;52.624;9.212;2022-08-19T05:32:04;12.70;;;11.40;;
7817;SDS011;3954;52.624;9.212;2022-08-19T05:34:35;13.07;;;11.23;;
7817;SDS011;3954;52.624;9.212;2022-08-19T05:37:03;11.47;;;10.37;;
7817;SDS011;3954;52.624;9.212;2022-08-19T05:39:30;11.70;;;10.50;;
7817;SDS011;3954;52.624;9.212;2022-08-19T05:41:57;9.53;;;8.60;;
7817;SDS011;3954;52.624;9.212;2022-08-19T05:44:23;14.57;;;11.67;;
7817;SDS011;3954;52.624;9.212;2022-08-19T05:46:50;12.37;;;10.73;;
7817;SDS011;3954;52.624;9.212;2022-08-19T05:49:20;14.20;;;10.83;;
7817;SDS011;3954;52.624;9.212;2022-08-19T05:51:47;13.43;;;11.47;;
7817;SDS011;3954;52.624;9.212;2022-08-19T05:54:14;11.87;;;10.53;;
7817;SDS011;3954;52.624;9.212;2022-08-19T05:56:40;12.73;;;11.13;;
7817;SDS011;3954;52.624;9.212;2022-08-19T05:59:07;11.90;;;10.80;;
7817;SDS011;3954;52.624;9.212;2022-08-19T06:01:34;11.40;;;10.30;;
7817;SDS011;3954;52.624;9.212;2022-08-19T06:04:01;12.07;;;10.50;;
7817;SDS011;3954;52.624;9.212;2022-08-19T06:06:27;9.60;;;8.40;;
7817;SDS011;3954;52.624;9.212;2022-08-19T06:08:54;11.37;;;8.97;;
7817;SDS011;3954;52.624;9.212;2022-08-19T06:11:21;10.47;;;9.47;;
7817;SDS011;3954;52.624;9.212;2022-08-19T06:13:48;11.73;;;10.03;;
7817;SDS011;3954;52.624;9.212;2022-08-19T06:16:16;10.77;;;9.73;;
7817;SDS011;3954;52.624;9.212;2022-08-19T06:18:48;12.60;;;9.90;;
7817;SDS011;3954;52.624;9.212;2022-08-19T06:21:16;15.23;;;11.30;;
7817;SDS011;3954;52.624;9.212;2022-08-19T06:23:42;11.07;;;9.60;;
7817;SDS011;3954;52.624;9.212;2022-08-19T06:26:12;10.77;;;9.77;;
7817;SDS011;3954;52.624;9.212;2022-08-19T06:28:38;10.93;;;9.70;;
7817;SDS011;3954;52.624;9.212;2022-08-19T06:31:08;10.70;;;9.07;;
7817;SDS011;3954;52.624;9.212;2022-08-19T06:33:34;12.50;;;8.30;;
7817;SDS011;3954;52.624;9.212;2022-08-19T06:36:00;10.37;;;9.37;;
7817;SDS011;3954;52.624;9.212;2022-08-19T06:38:26;8.60;;;7.60;;
7817;SDS011;3954;52.624;9.212;2022-08-19T06:40:59;10.53;;;7.40;;
7817;SDS011;3954;52.624;9.212;2022-08-19T06:43:26;6.10;;;5.50;;
7817;SDS011;3954;52.624;9.212;2022-08-19T06:45:52;5.10;;;4.60;;
7817;SDS011;3954;52.624;9.212;2022-08-19T06:48:18;5.43;;;4.17;;
7817;SDS011;3954;52.624;9.212;2022-08-19T06:50:44;5.53;;;4.60;;
7817;SDS011;3954;52.624;9.212;2022-08-19T06:53:10;5.00;;;4.50;;
7817;SDS011;3954;52.624;9.212;2022-08-19T06:55:36;5.30;;;4.83;;
7817;SDS011;3954;52.624;9.212;2022-08-19T06:58:03;4.40;;;3.97;;
7817;SDS011;3954;52.624;9.212;2022-08-19T07:00:30;4.23;;;3.83;;
7817;SDS011;3954;52.624;9.212;2022-08-19T07:02:56;5.70;;;4.27;;
7817;SDS011;3954;52.624;9.212;2022-08-19T07:05:23;7.87;;;4.07;;
7817;SDS011;3954;52.624;9.212;2022-08-19T07:07:50;4.10;;;3.70;;
7817;SDS011;3954;52.624;9.212;2022-08-19T07:10:15;4.03;;;3.50;;
7817;SDS011;3954;52.624;9.212;2022-08-19T07:12:41;5.43;;;3.93;;
7817;SDS011;3954;52.624;9.212;2022-08-19T07:15:08;6.13;;;3.27;;
7817;SDS011;3954;52.624;9.212;2022-08-19T07:17:36;3.53;;;3.13;;
7817;SDS011;3954;52.624;9.212;2022-08-19T07:20:04;6.60;;;3.70;;
7817;SDS011;3954;52.624;9.212;2022-08-19T07:22:31;3.27;;;2.67;;
7817;SDS011;3954;52.624;9.212;2022-08-19T07:24:58;3.00;;;2.70;;
7817;SDS011;3954;52.624;9.212;2022-08-19T07:27:24;3.93;;;3.23;;
7817;SDS011;3954;52.624;9.212;2022-08-19T07:29:50;4.73;;;3.20;;
7817;SDS011;3954;52.624;9.212;2022-08-19T07:32:17;3.80;;;3.30;;
7817;SDS011;3954;52.624;9.212;2022-08-19T07:34:44;3.97;;;3.10;;
7817;SDS011;3954;52.624;9.212;2022-08-19T07:37:10;4.97;;;3.77;;
7817;SDS011;3954;52.624;9.212;2022-08-19T07:39:36;4.47;;;4.07;;
7817;SDS011;3954;52.624;9.212;2022-08-19T07:42:04;5.17;;;4.07;;
7817;SDS011;3954;52.624;9.212;2022-08-19T07:44:31;4.47;;;3.40;;
7817;SDS011;3954;52.624;9.212;2022-08-19T07:46:58;5.20;;;3.57;;
7817;SDS011;3954;52.624;9.212;2022-08-19T07:49:25;4.03;;;3.67;;
7817;SDS011;3954;52.624;9.212;2022-08-19T07:51:53;7.90;;;4.47;;
7817;SDS011;3954;52.624;9.212;2022-08-19T07:54:19;5.10;;;4.40;;
7817;SDS011;3954;52.624;9.212;2022-08-19T07:56:45;5.03;;;4.63;;
7817;SDS011;3954;52.624;9.212;2022-08-19T07:59:11;5.77;;;4.50;;
7817;SDS011;3954;52.624;9.212;2022-08-19T08:01:38;5.13;;;4.63;;
7817;SDS011;3954;52.624;9.212;2022-08-19T08:04:05;4.97;;;4.47;;
7817;SDS011;3954;52.624;9.212;2022-08-19T08:06:49;6.17;;;4.37;;
7817;SDS011;3954;52.624;9.212;2022-08-19T08:09:36;6.40;;;4.33;;
7817;SDS011;3954;52.624;9.212;2022-08-19T08:12:03;5.30;;;4.00;;
7817;SDS011;3954;52.624;9.212;2022-08-19T08:14:31;4.63;;;3.30;;
7817;SDS011;3954;52.624;9.212;2022-08-19T08:16:58;4.10;;;3.27;;
7817;SDS011;3954;52.624;9.212;2022-08-19T08:19:24;3.47;;;3.17;;
7817;SDS011;3954;52.624;9.212;2022-08-19T08:21:51;6.17;;;3.70;;
7817;SDS011;3954;52.624;9.212;2022-08-19T08:24:17;3.40;;;3.10;;
7817;SDS011;3954;52.624;9.212;2022-08-19T08:26:46;4.30;;;3.40;;
7817;SDS011;3954;52.624;9.212;2022-08-19T08:29:12;4.90;;;3.23;;
7817;SDS011;3954;52.624;9.212;2022-08-19T08:31:38;5.00;;;4.33;;
7817;SDS011;3954;52.624;9.212;2022-08-19T08:34:04;5.73;;;3.97;;
7817;SDS011;3954;52.624;9.212;2022-08-19T08:36:30;8.00;;;4.30;;
7817;SDS011;3954;52.624;9.212;2022-08-19T08:38:58;5.73;;;4.60;;
7817;SDS011;3954;52.624;9.212;2022-08-19T08:41:26;5.40;;;4.23;;
7817;SDS011;3954;52.624;9.212;2022-08-19T08:43:55;5.17;;;3.37;;
7817;SDS011;3954;52.624;9.212;2022-08-19T08:46:24;4.23;;;3.57;;
7817;SDS011;3954;52.624;9.212;2022-08-19T08:48:52;5.33;;;3.97;;
7817;SDS011;3954;52.624;9.212;2022-08-19T08:51:20;5.73;;;4.80;;
7817;SDS011;3954;52.624;9.212;2022-08-19T08:53:47;6.03;;;4.50;;
7817;SDS011;3954;52.624;9.212;2022-08-19T08:56:15;5.87;;;3.57;;
7817;SDS011;3954;52.624;9.212;2022-08-19T08:58:48;5.90;;;3.60;;
7817;SDS011;3954;52.624;9.212;2022-08-19T09:01:16;4.60;;;3.60;;
7817;SDS011;3954;52.624;9.212;2022-08-19T09:03:42;6.43;;;3.70;;
7817;SDS011;3954;52.624;9.212;2022-08-19T09:06:12;4.53;;;3.70;;
7817;SDS011;3954;52.624;9.212;2022-08-19T09:08:43;7.83;;;3.50;;
7817;SDS011;3954;52.624;9.212;2022-08-19T09:11:12;4.03;;;3.03;;
7817;SDS011;3954;52.624;9.212;2022-08-19T09:13:42;3.53;;;3.23;;
7817;SDS011;3954;52.624;9.212;2022-08-19T09:16:11;4.57;;;4.07;;
7817;SDS011;3954;52.624;9.212;2022-08-19T09:18:40;6.20;;;3.53;;
7817;SDS011;3954;52.624;9.212;2022-08-19T09:21:06;4.53;;;3.17;;
7817;SDS011;3954;52.624;9.212;2022-08-19T09:23:33;4.47;;;3.10;;
7817;SDS011;3954;52.624;9.212;2022-08-19T09:25:59;5.90;;;2.80;;
7817;SDS011;3954;52.624;9.212;2022-08-19T09:28:25;3.07;;;2.60;;
7817;SDS011;3954;52.624;9.212;2022-08-19T09:30:53;4.33;;;2.97;;
7817;SDS011;3954;52.624;9.212;2022-08-19T09:33:19;4.20;;;2.90;;
7817;SDS011;3954;52.624;9.212;2022-08-19T09:35:46;4.03;;;2.83;;
7817;SDS011;3954;52.624;9.212;2022-08-19T09:38:12;3.50;;;2.80;;
7817;SDS011;3954;52.624;9.212;2022-08-19T09:40:38;4.27;;;2.80;;
7817;SDS011;3954;52.624;9.212;2022-08-19T09:43:05;3.57;;;2.67;;
7817;SDS011;3954;52.624;9.212;2022-08-19T09:45:31;5.38;;;3.58;;
7817;SDS011;3954;52.624;9.212;2022-08-19T09:47:57;3.17;;;2.73;;
7817;SDS011;3954;52.624;9.212;2022-08-19T09:50:23;4.30;;;2.80;;
7817;SDS011;3954;52.624;9.212;2022-08-19T09:52:51;7.87;;;2.60;;
7817;SDS011;3954;52.624;9.212;2022-08-19T09:55:21;4.27;;;2.90;;
7817;SDS011;3954;52.624;9.212;2022-08-19T09:57:47;3.00;;;2.40;;
7817;SDS011;3954;52.624;9.212;2022-08-19T10:15:14;4.00;;;2.40;;
7817;SDS011;3954;52.624;9.212;2022-08-19T10:17:41;5.88;;;2.30;;
7817;SDS011;3954;52.624;9.212;2022-08-19T10:20:07;3.03;;;2.40;;
7817;SDS011;3954;52.624;9.212;2022-08-19T10:22:34;2.73;;;2.10;;
7817;SDS011;3954;52.624;9.212;2022-08-19T10:25:02;3.63;;;2.17;;
7817;SDS011;3954;52.624;9.212;2022-08-19T10:27:28;2.73;;;2.40;;
7817;SDS011;3954;52.624;9.212;2022-08-19T10:29:55;7.80;;;2.30;;
7817;SDS011;3954;52.624;9.212;2022-08-19T10:32:23;3.78;;;2.40;;
7817;SDS011;3954;52.624;9.212;2022-08-19T10:34:50;6.43;;;2.17;;
7817;SDS011;3954;52.624;9.212;2022-08-19T10:37:17;4.33;;;2.03;;
7817;SDS011;3954;52.624;9.212;2022-08-19T10:39:43;6.30;;;2.10;;
7817;SDS011;3954;52.624;9.212;2022-08-19T10:42:12;5.50;;;2.30;;
7817;SDS011;3954;52.624;9.212;2022-08-19T10:44:39;5.83;;;2.30;;
7817;SDS011;3954;52.624;9.212;2022-08-19T10:47:05;2.87;;;2.10;;
7817;SDS011;3954;52.624;9.212;2022-08-19T10:49:32;6.07;;;1.93;;
7817;SDS011;3954;52.624;9.212;2022-08-19T10:52:18;3.93;;;1.93;;
7817;SDS011;3954;52.624;9.212;2022-08-19T10:54:59;2.73;;;2.07;;
7817;SDS011;3954;52.624;9.212;2022-08-19T10:57:44;2.90;;;1.93;;
7817;SDS011;3954;52.624;9.212;2022-08-19T11:00:10;3.23;;;1.90;;
7817;SDS011;3954;52.624;9.212;2022-08-19T11:02:37;3.10;;;2.27;;
7817;SDS011;3954;52.624;9.212;2022-08-19T11:05:05;2.53;;;1.97;;
7817;SDS011;3954;52.624;9.212;2022-08-19T11:07:31;4.33;;;1.87;;
7817;SDS011;3954;52.624;9.212;2022-08-19T11:09:57;4.47;;;2.00;;
7817;SDS011;3954;52.624;9.212;2022-08-19T11:12:23;2.43;;;1.60;;
7817;SDS011;3954;52.624;9.212;2022-08-19T11:14:49;2.23;;;1.73;;
7817;SDS011;3954;52.624;9.212;2022-08-19T11:17:15;3.70;;;1.70;;
7817;SDS011;3954;52.624;9.212;2022-08-19T11:19:41;2.90;;;1.77;;
7817;SDS011;3954;52.624;9.212;2022-08-19T11:22:09;6.23;;;1.97;;
7817;SDS011;3954;52.624;9.212;2022-08-19T11:24:35;2.50;;;2.00;;
7817;SDS011;3954;52.624;9.212;2022-08-19T11:27:02;1.90;;;1.50;;
7817;SDS011;3954;52.624;9.212;2022-08-19T11:29:29;2.67;;;1.60;;
7817;SDS011;3954;52.624;9.212;2022-08-19T11:31:56;1.70;;;1.60;;
7817;SDS011;3954;52.624;9.212;2022-08-19T11:34:23;2.70;;;1.70;;
7817;SDS011;3954;52.624;9.212;2022-08-19T11:36:53;4.40;;;1.67;;
7817;SDS011;3954;52.624;9.212;2022-08-19T11:39:24;5.33;;;1.90;;
7817;SDS011;3954;52.624;9.212;2022-08-19T11:41:51;5.17;;;1.63;;
7817;SDS011;3954;52.624;9.212;2022-08-19T11:44:17;3.77;;;1.80;;
7817;SDS011;3954;52.624;9.212;2022-08-19T11:46:44;3.13;;;1.70;;
7817;SDS011;3954;52.624;9.212;2022-08-19T11:49:11;2.22;;;1.50;;
7817;SDS011;3954;52.624;9.212;2022-08-19T11:51:37;2.95;;;1.65;;
7817;SDS011;3954;52.624;9.212;2022-08-19T11:54:04;4.35;;;1.77;;
7817;SDS011;3954;52.624;9.212;2022-08-19T11:56:32;4.50;;;1.80;;
7817;SDS011;3954;52.624;9.212;2022-08-19T11:58:58;4.53;;;1.77;;
7817;SDS011;3954;52.624;9.212;2022-08-19T12:01:26;3.57;;;1.77;;
7817;SDS011;3954;52.624;9.212;2022-08-19T12:03:53;2.95;;;1.60;;
7817;SDS011;3954;52.624;9.212;2022-08-19T12:06:24;2.00;;;1.40;;
7817;SDS011;3954;52.624;9.212;2022-08-19T12:08:53;2.15;;;1.40;;
7817;SDS011;3954;52.624;9.212;2022-08-19T12:11:20;3.42;;;1.30;;
7817;SDS011;3954;52.624;9.212;2022-08-19T12:13:47;2.97;;;1.33;;
7817;SDS011;3954;52.624;9.212;2022-08-19T12:16:14;4.17;;;1.30;;
7817;SDS011;3954;52.624;9.212;2022-08-19T12:18:41;3.63;;;1.40;;
7817;SDS011;3954;52.624;9.212;2022-08-19T12:21:11;3.60;;;1.13;;
7817;SDS011;3954;52.624;9.212;2022-08-19T12:23:38;1.60;;;1.00;;
7817;SDS011;3954;52.624;9.212;2022-08-19T12:26:04;3.80;;;1.33;;
7817;SDS011;3954;52.624;9.212;2022-08-19T12:28:30;2.33;;;1.40;;
7817;SDS011;3954;52.624;9.212;2022-08-19T12:30:58;1.30;;;1.10;;
7817;SDS011;3954;52.624;9.212;2022-08-19T12:33:24;2.03;;;1.07;;
7817;SDS011;3954;52.624;9.212;2022-08-19T12:35:52;6.87;;;1.40;;
7817;SDS011;3954;52.624;9.212;2022-08-19T12:38:18;2.77;;;1.10;;
7817;SDS011;3954;52.624;9.212;2022-08-19T12:40:46;1.80;;;1.20;;
7817;SDS011;3954;52.624;9.212;2022-08-19T12:43:12;1.47;;;1.10;;
7817;SDS011;3954;52.624;9.212;2022-08-19T12:45:40;3.47;;;1.20;;
7817;SDS011;3954;52.624;9.212;2022-08-19T12:48:08;10.00;;;1.83;;
7817;SDS011;3954;52.624;9.212;2022-08-19T12:50:35;4.40;;;1.47;;
7817;SDS011;3954;52.624;9.212;2022-08-19T12:53:00;3.50;;;1.43;;
7817;SDS011;3954;52.624;9.212;2022-08-19T12:55:26;2.70;;;1.63;;
7817;SDS011;3954;52.624;9.212;2022-08-19T12:57:54;2.83;;;1.30;;
7817;SDS011;3954;52.624;9.212;2022-08-19T13:00:20;2.90;;;1.50;;
7817;SDS011;3954;52.624;9.212;2022-08-19T13:02:47;1.93;;;1.30;;
7817;SDS011;3954;52.624;9.212;2022-08-19T13:05:18;2.10;;;1.27;;
7817;SDS011;3954;52.624;9.212;2022-08-19T13:07:48;2.40;;;1.40;;
7817;SDS011;3954;52.624;9.212;2022-08-19T13:10:15;1.30;;;1.20;;
7817;SDS011;3954;52.624;9.212;2022-08-19T13:12:41;4.67;;;1.20;;
7817;SDS011;3954;52.624;9.212;2022-08-19T13:15:07;1.97;;;1.60;;
7817;SDS011;3954;52.624;9.212;2022-08-19T13:17:34;1.20;;;1.10;;
7817;SDS011;3954;52.624;9.212;2022-08-19T13:20:00;3.23;;;1.23;;
7817;SDS011;3954;52.624;9.212;2022-08-19T13:22:28;1.27;;;1.13;;
7817;SDS011;3954;52.624;9.212;2022-08-19T13:24:54;3.20;;;1.20;;
7817;SDS011;3954;52.624;9.212;2022-08-19T13:27:20;1.20;;;1.10;;
7817;SDS011;3954;52.624;9.212;2022-08-19T13:29:46;2.77;;;1.20;;
7817;SDS011;3954;52.624;9.212;2022-08-19T13:32:30;4.77;;;1.27;;
7817;SDS011;3954;52.624;9.212;2022-08-19T13:35:15;3.27;;;1.47;;
7817;SDS011;3954;52.624;9.212;2022-08-19T13:37:42;2.13;;;1.40;;
7817;SDS011;3954;52.624;9.212;2022-08-19T13:40:10;3.40;;;2.00;;
7817;SDS011;3954;52.624;9.212;2022-08-19T13:42:37;1.63;;;1.50;;
7817;SDS011;3954;52.624;9.212;2022-08-19T13:45:03;2.10;;;1.13;;
7817;SDS011;3954;52.624;9.212;2022-08-19T13:47:31;3.23;;;1.30;;
7817;SDS011;3954;52.624;9.212;2022-08-19T13:49:59;2.63;;;1.10;;
7817;SDS011;3954;52.624;9.212;2022-08-19T13:52:25;0.73;;;0.73;;
7817;SDS011;3954;52.624;9.212;2022-08-19T13:54:52;1.40;;;1.10;;
7817;SDS011;3954;52.624;9.212;2022-08-19T13:57:19;1.20;;;1.10;;
7817;SDS011;3954;52.624;9.212;2022-08-19T13:59:45;3.03;;;1.20;;
7817;SDS011;3954;52.624;9.212;2022-08-19T14:02:11;3.03;;;1.10;;
7817;SDS011;3954;52.624;9.212;2022-08-19T14:04:37;1.47;;;1.10;;
7817;SDS011;3954;52.624;9.212;2022-08-19T14:07:03;1.37;;;1.00;;
7817;SDS011;3954;52.624;9.212;2022-08-19T14:09:29;1.30;;;1.00;;
7817;SDS011;3954;52.624;9.212;2022-08-19T14:11:56;2.13;;;0.90;;
7817;SDS011;3954;52.624;9.212;2022-08-19T14:14:22;2.23;;;1.10;;
7817;SDS011;3954;52.624;9.212;2022-08-19T14:16:48;2.03;;;1.07;;
7817;SDS011;3954;52.624;9.212;2022-08-19T14:19:16;2.17;;;1.00;;
7817;SDS011;3954;52.624;9.212;2022-08-19T14:21:42;1.23;;;1.00;;
7817;SDS011;3954;52.624;9.212;2022-08-19T14:24:08;2.07;;;0.80;;
7817;SDS011;3954;52.624;9.212;2022-08-19T14:26:34;4.20;;;1.07;;
7817;SDS011;3954;52.624;9.212;2022-08-19T14:29:02;1.10;;;1.00;;
7817;SDS011;3954;52.624;9.212;2022-08-19T14:31:28;2.30;;;1.00;;
7817;SDS011;3954;52.624;9.212;2022-08-19T14:33:53;2.83;;;0.80;;
7817;SDS011;3954;52.624;9.212;2022-08-19T14:36:19;0.73;;;0.73;;
7817;SDS011;3954;52.624;9.212;2022-08-19T14:38:46;1.40;;;1.30;;
7817;SDS011;3954;52.624;9.212;2022-08-19T14:41:14;1.30;;;1.20;;
7817;SDS011;3954;52.624;9.212;2022-08-19T14:43:42;2.17;;;0.73;;
7817;SDS011;3954;52.624;9.212;2022-08-19T14:46:11;2.30;;;1.03;;
7817;SDS011;3954;52.624;9.212;2022-08-19T14:48:38;1.30;;;0.80;;
7817;SDS011;3954;52.624;9.212;2022-08-19T14:51:04;1.90;;;0.90;;
7817;SDS011;3954;52.624;9.212;2022-08-19T14:53:30;2.43;;;1.30;;
7817;SDS011;3954;52.624;9.212;2022-08-19T14:55:58;2.03;;;1.10;;
7817;SDS011;3954;52.624;9.212;2022-08-19T14:58:24;0.80;;;0.80;;
7817;SDS011;3954;52.624;9.212;2022-08-19T15:00:51;1.13;;;1.03;;
7817;SDS011;3954;52.624;9.212;2022-08-19T15:03:18;1.23;;;1.00;;
7817;SDS011;3954;52.624;9.212;2022-08-19T15:05:44;1.17;;;1.00;;
7817;SDS011;3954;52.624;9.212;2022-08-19T15:08:10;1.33;;;1.10;;
7817;SDS011;3954;52.624;9.212;2022-08-19T15:10:37;1.90;;;1.00;;
7817;SDS011;3954;52.624;9.212;2022-08-19T15:13:03;1.27;;;1.17;;
7817;SDS011;3954;52.624;9.212;2022-08-19T15:15:29;1.00;;;0.90;;
7817;SDS011;3954;52.624;9.212;2022-08-19T15:17:55;1.63;;;1.30;;
7817;SDS011;3954;52.624;9.212;2022-08-19T15:20:28;1.10;;;1.00;;
7817;SDS011;3954;52.624;9.212;2022-08-19T15:22:54;4.33;;;1.30;;
7817;SDS011;3954;52.624;9.212;2022-08-19T15:25:20;1.67;;;1.40;;
7817;SDS011;3954;52.624;9.212;2022-08-19T15:27:46;1.90;;;1.10;;
7817;SDS011;3954;52.624;9.212;2022-08-19T15:30:17;2.67;;;1.10;;